IGO150 VOHS-VABB
Flight info
| Callsign | IGO150 |
|---|---|
| Flight time | 1h 13m |
| Altitude | 38000 |
| Route | TAMIV7 APUSU W18 OPAKA EMRAK2A |
| Aircraft | A20N/M-SDE2E3FGHIRWXY/LB1 |
Departure
| Time | 2026-04-25 14:28 |
|---|---|
| Airport | Rajiv Gandhi International Airport (VOHS) |
Arrival
| Time | 2026-04-25 15:42 |
|---|---|
| Airport | Chhatrapati Shivaji Maharaj International Airport (VABB) |
| Time | Latitude | Longitude | Altitude | Speed | Heading |
|---|---|---|---|---|---|
| 2026-04-25 13:59 | 17.23414 | 78.42872 | 1979 ft | 0 kts | 359° |
| 2026-04-25 14:12 | 17.23409 | 78.42872 | 1979 ft | 1 kts | 359° |
| 2026-04-25 14:13 | 17.23401 | 78.42872 | 1979 ft | 1 kts | 359° |
| 2026-04-25 14:13 | 17.23394 | 78.42872 | 1982 ft | 1 kts | 359° |
| 2026-04-25 14:13 | 17.23386 | 78.42872 | 1983 ft | 1 kts | 359° |
| 2026-04-25 14:13 | 17.23378 | 78.42872 | 1981 ft | 1 kts | 359° |
| 2026-04-25 14:14 | 17.23370 | 78.42872 | 1981 ft | 1 kts | 359° |
| 2026-04-25 14:14 | 17.23363 | 78.42873 | 1980 ft | 0 kts | 358° |
| 2026-04-25 14:14 | 17.23360 | 78.42873 | 1980 ft | 1 kts | 358° |
| 2026-04-25 14:14 | 17.23352 | 78.42873 | 1981 ft | 1 kts | 358° |
| 2026-04-25 14:15 | 17.23344 | 78.42873 | 1980 ft | 1 kts | 358° |
| 2026-04-25 14:15 | 17.23341 | 78.42873 | 1983 ft | 1 kts | 358° |
| 2026-04-25 14:15 | 17.23328 | 78.42873 | 1981 ft | 1 kts | 350° |
| 2026-04-25 14:15 | 17.23320 | 78.42875 | 1980 ft | 1 kts | 307° |
| 2026-04-25 14:16 | 17.23316 | 78.42882 | 1980 ft | 0 kts | 269° |
| 2026-04-25 14:18 | 17.23316 | 78.42878 | 1980 ft | 2 kts | 269° |
| 2026-04-25 14:18 | 17.23319 | 78.42857 | 1980 ft | 4 kts | 280° |
| 2026-04-25 14:18 | 17.23325 | 78.42816 | 1980 ft | 7 kts | 280° |
| 2026-04-25 14:19 | 17.23324 | 78.42758 | 1982 ft | 9 kts | 256° |
| 2026-04-25 14:19 | 17.23271 | 78.42728 | 1980 ft | 10 kts | 186° |
| 2026-04-25 14:19 | 17.23238 | 78.42680 | 1980 ft | 9 kts | 268° |
| 2026-04-25 14:19 | 17.23236 | 78.42602 | 1980 ft | 12 kts | 271° |
| 2026-04-25 14:20 | 17.23236 | 78.42505 | 1980 ft | 14 kts | 265° |
| 2026-04-25 14:20 | 17.23235 | 78.42469 | 1980 ft | 15 kts | 270° |
| 2026-04-25 14:20 | 17.23231 | 78.42266 | 1980 ft | 18 kts | 258° |
| 2026-04-25 14:20 | 17.23177 | 78.42235 | 1981 ft | 8 kts | 178° |
| 2026-04-25 14:21 | 17.23173 | 78.42235 | 1981 ft | 1 kts | 177° |
| 2026-04-25 14:21 | 17.23158 | 78.42235 | 1980 ft | 3 kts | 179° |
| 2026-04-25 14:21 | 17.23126 | 78.42234 | 1984 ft | 6 kts | 185° |
| 2026-04-25 14:21 | 17.23085 | 78.42211 | 1981 ft | 8 kts | 229° |
| 2026-04-25 14:22 | 17.23073 | 78.42150 | 1981 ft | 10 kts | 268° |
| 2026-04-25 14:22 | 17.23071 | 78.42068 | 1982 ft | 13 kts | 268° |
| 2026-04-25 14:22 | 17.23068 | 78.41962 | 1981 ft | 16 kts | 268° |
| 2026-04-25 14:22 | 17.23066 | 78.41832 | 1978 ft | 19 kts | 271° |
| 2026-04-25 14:23 | 17.23068 | 78.41686 | 1983 ft | 21 kts | 270° |
| 2026-04-25 14:23 | 17.23065 | 78.41527 | 1979 ft | 23 kts | 268° |
| 2026-04-25 14:23 | 17.23059 | 78.41374 | 1979 ft | 16 kts | 259° |
| 2026-04-25 14:23 | 17.22998 | 78.41333 | 1979 ft | 0 kts | 162° |
| 2026-04-25 14:24 | 17.22987 | 78.41335 | 1982 ft | 2 kts | 173° |
| 2026-04-25 14:24 | 17.22964 | 78.41335 | 1980 ft | 0 kts | 180° |
| 2026-04-25 14:25 | 17.22961 | 78.41335 | 1980 ft | 1 kts | 180° |
| 2026-04-25 14:25 | 17.22942 | 78.41335 | 1980 ft | 4 kts | 180° |
| 2026-04-25 14:25 | 17.22910 | 78.41335 | 1982 ft | 5 kts | 180° |
| 2026-04-25 14:25 | 17.22898 | 78.41335 | 1981 ft | 6 kts | 180° |
| 2026-04-25 14:26 | 17.22860 | 78.41371 | 1981 ft | 6 kts | 92° |
| 2026-04-25 14:26 | 17.22858 | 78.41411 | 1981 ft | 0 kts | 92° |
| 2026-04-25 14:27 | 17.22858 | 78.41414 | 1981 ft | 2 kts | 92° |
| 2026-04-25 14:27 | 17.22857 | 78.41434 | 1981 ft | 4 kts | 92° |
| 2026-04-25 14:27 | 17.22859 | 78.41530 | 1981 ft | 35 kts | 88° |
| 2026-04-25 14:27 | 17.22867 | 78.42031 | 1979 ft | 101 kts | 89° |
| 2026-04-25 14:28 | 17.22876 | 78.42952 | 1982 ft | 150 kts | 89° |
| 2026-04-25 14:28 | 17.22884 | 78.44150 | 2249 ft | 167 kts | 89° |
| 2026-04-25 14:28 | 17.22906 | 78.45319 | 2900 ft | 168 kts | 88° |
| 2026-04-25 14:28 | 17.22996 | 78.46573 | 3351 ft | 176 kts | 82° |
| 2026-04-25 14:29 | 17.23189 | 78.47920 | 3563 ft | 201 kts | 80° |
| 2026-04-25 14:29 | 17.23249 | 78.49324 | 4398 ft | 184 kts | 92° |
| 2026-04-25 14:29 | 17.23168 | 78.50594 | 5293 ft | 167 kts | 89° |
| 2026-04-25 14:29 | 17.23321 | 78.51772 | 5951 ft | 167 kts | 70° |
| 2026-04-25 14:30 | 17.23901 | 78.52827 | 6493 ft | 171 kts | 48° |
| 2026-04-25 14:30 | 17.24292 | 78.53220 | 6712 ft | 174 kts | 38° |
| 2026-04-25 14:30 | 17.25176 | 78.53731 | 7235 ft | 174 kts | 21° |
| 2026-04-25 14:31 | 17.26376 | 78.53952 | 7817 ft | 178 kts | 1° |
| 2026-04-25 14:31 | 17.27614 | 78.53893 | 8431 ft | 178 kts | 1° |
| 2026-04-25 14:31 | 17.28854 | 78.53852 | 9033 ft | 180 kts | 1° |
| 2026-04-25 14:31 | 17.30108 | 78.53826 | 9634 ft | 180 kts | 1° |
| 2026-04-25 14:32 | 17.31371 | 78.53803 | 10162 ft | 184 kts | 1° |
| 2026-04-25 14:32 | 17.32646 | 78.53621 | 10678 ft | 189 kts | 336° |
| 2026-04-25 14:32 | 17.33606 | 78.52689 | 11199 ft | 196 kts | 298° |
| 2026-04-25 14:32 | 17.33841 | 78.51274 | 11684 ft | 204 kts | 260° |
| 2026-04-25 14:33 | 17.33388 | 78.49934 | 12268 ft | 203 kts | 246° |
| 2026-04-25 14:33 | 17.32901 | 78.48575 | 12840 ft | 204 kts | 255° |
| 2026-04-25 14:33 | 17.32633 | 78.47059 | 13112 ft | 222 kts | 266° |
| 2026-04-25 14:33 | 17.32608 | 78.45370 | 13305 ft | 243 kts | 274° |
| 2026-04-25 14:34 | 17.32764 | 78.43527 | 13433 ft | 267 kts | 278° |
| 2026-04-25 14:34 | 17.33026 | 78.41525 | 13657 ft | 289 kts | 279° |
| 2026-04-25 14:34 | 17.33334 | 78.39364 | 13848 ft | 312 kts | 280° |
| 2026-04-25 14:34 | 17.33641 | 78.37204 | 14020 ft | 332 kts | 279° |
| 2026-04-25 14:35 | 17.33984 | 78.34739 | 14206 ft | 352 kts | 279° |
| 2026-04-25 14:35 | 17.34334 | 78.32178 | 14467 ft | 368 kts | 279° |
| 2026-04-25 14:35 | 17.34691 | 78.29516 | 15119 ft | 369 kts | 279° |
| 2026-04-25 14:35 | 17.35047 | 78.26851 | 15811 ft | 371 kts | 278° |
| 2026-04-25 14:36 | 17.35403 | 78.24183 | 16537 ft | 371 kts | 278° |
| 2026-04-25 14:36 | 17.35761 | 78.21497 | 17143 ft | 373 kts | 278° |
| 2026-04-25 14:36 | 17.36118 | 78.18817 | 17933 ft | 371 kts | 278° |
| 2026-04-25 14:36 | 17.36478 | 78.16121 | 18414 ft | 377 kts | 278° |
| 2026-04-25 14:37 | 17.36842 | 78.13390 | 18902 ft | 381 kts | 278° |
| 2026-04-25 14:37 | 17.37209 | 78.10628 | 19420 ft | 383 kts | 278° |
| 2026-04-25 14:37 | 17.37576 | 78.07854 | 19927 ft | 386 kts | 277° |
| 2026-04-25 14:37 | 17.37940 | 78.05097 | 20430 ft | 389 kts | 277° |
| 2026-04-25 14:38 | 17.38311 | 78.02286 | 20932 ft | 391 kts | 277° |
| 2026-04-25 14:38 | 17.38682 | 77.99471 | 21524 ft | 392 kts | 277° |
| 2026-04-25 14:38 | 17.39058 | 77.96625 | 21985 ft | 396 kts | 277° |
| 2026-04-25 14:38 | 17.39307 | 77.94733 | 22297 ft | 398 kts | 276° |
| 2026-04-25 14:39 | 17.39815 | 77.90888 | 23014 ft | 400 kts | 276° |
| 2026-04-25 14:39 | 17.40195 | 77.87993 | 23480 ft | 403 kts | 276° |
| 2026-04-25 14:39 | 17.40576 | 77.85079 | 23897 ft | 405 kts | 276° |
| 2026-04-25 14:39 | 17.40952 | 77.82192 | 24332 ft | 406 kts | 276° |
| 2026-04-25 14:40 | 17.41333 | 77.79259 | 24740 ft | 408 kts | 276° |
| 2026-04-25 14:40 | 17.41716 | 77.76310 | 25137 ft | 410 kts | 275° |
| 2026-04-25 14:40 | 17.42100 | 77.73345 | 25538 ft | 412 kts | 275° |
| 2026-04-25 14:40 | 17.42486 | 77.70366 | 25922 ft | 414 kts | 275° |
| 2026-04-25 14:41 | 17.42872 | 77.67376 | 26309 ft | 416 kts | 275° |
| 2026-04-25 14:41 | 17.43259 | 77.64372 | 26680 ft | 417 kts | 275° |
| 2026-04-25 14:41 | 17.43515 | 77.62380 | 26924 ft | 419 kts | 275° |
| 2026-04-25 14:41 | 17.43905 | 77.59345 | 27278 ft | 421 kts | 275° |
| 2026-04-25 14:42 | 17.44294 | 77.56312 | 27688 ft | 421 kts | 275° |
| 2026-04-25 14:42 | 17.44553 | 77.54293 | 27932 ft | 422 kts | 275° |
| 2026-04-25 14:42 | 17.45076 | 77.50201 | 28369 ft | 425 kts | 275° |
| 2026-04-25 14:42 | 17.45596 | 77.46129 | 28826 ft | 427 kts | 275° |
| 2026-04-25 14:43 | 17.45990 | 77.43039 | 29160 ft | 429 kts | 275° |
| 2026-04-25 14:43 | 17.46386 | 77.39935 | 29487 ft | 431 kts | 275° |
| 2026-04-25 14:43 | 17.46648 | 77.37874 | 29696 ft | 432 kts | 275° |
| 2026-04-25 14:43 | 17.47046 | 77.34748 | 29978 ft | 434 kts | 275° |
| 2026-04-25 14:44 | 17.47444 | 77.31610 | 30249 ft | 436 kts | 275° |
| 2026-04-25 14:44 | 17.47845 | 77.28456 | 30502 ft | 438 kts | 274° |
| 2026-04-25 14:44 | 17.48246 | 77.25288 | 30752 ft | 440 kts | 274° |
| 2026-04-25 14:44 | 17.48650 | 77.22106 | 31048 ft | 441 kts | 274° |
| 2026-04-25 14:45 | 17.49184 | 77.17897 | 31554 ft | 439 kts | 274° |
| 2026-04-25 14:45 | 17.49456 | 77.15753 | 31797 ft | 439 kts | 274° |
| 2026-04-25 14:45 | 17.49851 | 77.12629 | 32158 ft | 438 kts | 274° |
| 2026-04-25 14:45 | 17.50384 | 77.08404 | 32613 ft | 437 kts | 274° |
| 2026-04-25 14:46 | 17.50647 | 77.06315 | 32844 ft | 436 kts | 274° |
| 2026-04-25 14:46 | 17.51042 | 77.03172 | 33188 ft | 435 kts | 274° |
| 2026-04-25 14:46 | 17.51436 | 77.00033 | 33523 ft | 434 kts | 274° |
| 2026-04-25 14:46 | 17.51957 | 76.95883 | 33938 ft | 433 kts | 273° |
| 2026-04-25 14:47 | 17.52221 | 76.93771 | 34126 ft | 432 kts | 273° |
| 2026-04-25 14:47 | 17.52479 | 76.91706 | 34322 ft | 431 kts | 273° |
| 2026-04-25 14:47 | 17.52994 | 76.87586 | 34705 ft | 429 kts | 273° |
| 2026-04-25 14:47 | 17.53377 | 76.84503 | 35016 ft | 427 kts | 273° |
| 2026-04-25 14:48 | 17.53760 | 76.81427 | 35318 ft | 425 kts | 273° |
| 2026-04-25 14:48 | 17.54140 | 76.78363 | 35586 ft | 423 kts | 273° |
| 2026-04-25 14:48 | 17.54536 | 76.75310 | 35847 ft | 424 kts | 276° |
| 2026-04-25 14:48 | 17.55299 | 76.72312 | 36086 ft | 430 kts | 285° |
| 2026-04-25 14:49 | 17.56609 | 76.69462 | 36284 ft | 439 kts | 296° |
| 2026-04-25 14:49 | 17.58443 | 76.66870 | 36496 ft | 448 kts | 306° |
| 2026-04-25 14:49 | 17.60752 | 76.64642 | 36698 ft | 457 kts | 317° |
| 2026-04-25 14:49 | 17.63443 | 76.62895 | 36906 ft | 466 kts | 326° |
| 2026-04-25 14:50 | 17.66338 | 76.61367 | 37179 ft | 465 kts | 326° |
| 2026-04-25 14:50 | 17.69222 | 76.59847 | 37413 ft | 463 kts | 326° |
| 2026-04-25 14:50 | 17.72092 | 76.58312 | 37618 ft | 462 kts | 325° |
| 2026-04-25 14:50 | 17.74946 | 76.56766 | 37798 ft | 462 kts | 325° |
| 2026-04-25 14:51 | 17.80634 | 76.53655 | 37876 ft | 460 kts | 324° |
| 2026-04-25 14:51 | 17.86308 | 76.50545 | 37873 ft | 460 kts | 324° |
| 2026-04-25 14:52 | 17.91943 | 76.47456 | 37869 ft | 460 kts | 324° |
| 2026-04-25 14:52 | 17.96658 | 76.44872 | 37883 ft | 460 kts | 324° |
| 2026-04-25 14:53 | 18.03268 | 76.41278 | 37871 ft | 461 kts | 324° |
| 2026-04-25 14:53 | 18.09008 | 76.38253 | 37873 ft | 462 kts | 324° |
| 2026-04-25 14:54 | 18.14716 | 76.35250 | 37870 ft | 462 kts | 324° |
| 2026-04-25 14:54 | 18.20451 | 76.32222 | 37867 ft | 462 kts | 324° |
| 2026-04-25 14:55 | 18.26185 | 76.29187 | 37868 ft | 462 kts | 324° |
| 2026-04-25 14:55 | 18.31926 | 76.26147 | 37868 ft | 462 kts | 324° |
| 2026-04-25 14:56 | 18.37664 | 76.23108 | 37866 ft | 462 kts | 324° |
| 2026-04-25 14:56 | 18.43364 | 76.20087 | 37868 ft | 461 kts | 324° |
| 2026-04-25 14:57 | 18.49091 | 76.17049 | 37865 ft | 461 kts | 324° |
| 2026-04-25 14:57 | 18.54814 | 76.14012 | 37871 ft | 460 kts | 324° |
| 2026-04-25 14:58 | 18.60535 | 76.10974 | 37870 ft | 460 kts | 324° |
| 2026-04-25 14:58 | 18.66214 | 76.07956 | 37872 ft | 460 kts | 324° |
| 2026-04-25 14:59 | 18.71932 | 76.04916 | 37871 ft | 460 kts | 324° |
| 2026-04-25 14:59 | 18.77648 | 76.01875 | 37863 ft | 460 kts | 324° |
| 2026-04-25 15:00 | 18.83361 | 75.98833 | 37864 ft | 460 kts | 324° |
| 2026-04-25 15:00 | 18.89031 | 75.95812 | 37853 ft | 459 kts | 324° |
| 2026-04-25 15:01 | 18.94735 | 75.92771 | 37867 ft | 459 kts | 324° |
| 2026-04-25 15:01 | 19.00433 | 75.89731 | 37859 ft | 459 kts | 324° |
| 2026-04-25 15:02 | 19.06131 | 75.86687 | 37857 ft | 458 kts | 324° |
| 2026-04-25 15:02 | 19.11822 | 75.83646 | 37844 ft | 458 kts | 324° |
| 2026-04-25 15:03 | 19.17470 | 75.80627 | 37841 ft | 458 kts | 324° |
| 2026-04-25 15:03 | 19.23143 | 75.77591 | 37847 ft | 458 kts | 323° |
| 2026-04-25 15:04 | 19.28825 | 75.74548 | 37838 ft | 458 kts | 324° |
| 2026-04-25 15:04 | 19.34511 | 75.71500 | 37839 ft | 457 kts | 323° |
| 2026-04-25 15:05 | 19.40146 | 75.68478 | 37837 ft | 457 kts | 323° |
| 2026-04-25 15:06 | 19.47183 | 75.62289 | 37834 ft | 428 kts | 297° |
| 2026-04-25 15:06 | 19.49971 | 75.56890 | 37832 ft | 412 kts | 281° |
| 2026-04-25 15:07 | 19.51106 | 75.51098 | 37830 ft | 401 kts | 269° |
| 2026-04-25 15:07 | 19.51604 | 75.45452 | 37836 ft | 401 kts | 269° |
| 2026-04-25 15:08 | 19.52166 | 75.39554 | 37839 ft | 403 kts | 270° |
| 2026-04-25 15:08 | 19.52765 | 75.33640 | 37847 ft | 404 kts | 270° |
| 2026-04-25 15:09 | 19.53368 | 75.27748 | 37844 ft | 406 kts | 270° |
| 2026-04-25 15:09 | 19.54260 | 75.18949 | 37861 ft | 408 kts | 270° |
| 2026-04-25 15:10 | 19.54863 | 75.12970 | 37868 ft | 409 kts | 270° |
| 2026-04-25 15:11 | 19.55762 | 75.03992 | 37867 ft | 409 kts | 270° |
| 2026-04-25 15:11 | 19.56354 | 74.98015 | 37865 ft | 410 kts | 270° |
| 2026-04-25 15:12 | 19.56950 | 74.92015 | 37521 ft | 408 kts | 270° |
| 2026-04-25 15:12 | 19.57246 | 74.89016 | 36790 ft | 411 kts | 270° |
| 2026-04-25 15:12 | 19.57542 | 74.85984 | 35851 ft | 418 kts | 270° |
| 2026-04-25 15:12 | 19.57742 | 74.83939 | 35187 ft | 423 kts | 270° |
| 2026-04-25 15:13 | 19.58146 | 74.79812 | 34094 ft | 426 kts | 270° |
| 2026-04-25 15:13 | 19.58759 | 74.73551 | 32368 ft | 428 kts | 271° |
| 2026-04-25 15:13 | 19.59061 | 74.70425 | 31675 ft | 426 kts | 271° |
| 2026-04-25 15:14 | 19.59360 | 74.67307 | 30926 ft | 425 kts | 271° |
| 2026-04-25 15:14 | 19.59655 | 74.64203 | 30336 ft | 422 kts | 272° |
| 2026-04-25 15:14 | 19.59949 | 74.61123 | 29897 ft | 416 kts | 272° |
| 2026-04-25 15:14 | 19.60176 | 74.58230 | 29364 ft | 409 kts | 269° |
| 2026-04-25 15:15 | 19.60154 | 74.55253 | 28861 ft | 401 kts | 263° |
| 2026-04-25 15:15 | 19.59833 | 74.52378 | 28368 ft | 393 kts | 257° |
| 2026-04-25 15:15 | 19.59216 | 74.49580 | 27888 ft | 387 kts | 252° |
| 2026-04-25 15:15 | 19.58455 | 74.46862 | 27402 ft | 382 kts | 252° |
| 2026-04-25 15:16 | 19.57676 | 74.44112 | 26912 ft | 401 kts | 252° |
| 2026-04-25 15:16 | 19.56862 | 74.41214 | 26396 ft | 416 kts | 252° |
| 2026-04-25 15:16 | 19.55225 | 74.35283 | 25310 ft | 419 kts | 252° |
| 2026-04-25 15:17 | 19.53627 | 74.29434 | 24220 ft | 413 kts | 253° |
| 2026-04-25 15:17 | 19.52832 | 74.26525 | 23689 ft | 409 kts | 253° |
| 2026-04-25 15:17 | 19.52042 | 74.23631 | 23115 ft | 406 kts | 253° |
| 2026-04-25 15:18 | 19.51261 | 74.20773 | 22574 ft | 401 kts | 253° |
| 2026-04-25 15:18 | 19.49729 | 74.15163 | 21513 ft | 392 kts | 253° |
| 2026-04-25 15:18 | 19.48974 | 74.12400 | 20998 ft | 389 kts | 253° |
| 2026-04-25 15:19 | 19.48224 | 74.09655 | 20455 ft | 387 kts | 253° |
| 2026-04-25 15:19 | 19.47729 | 74.07844 | 20079 ft | 387 kts | 253° |
| 2026-04-25 15:19 | 19.46737 | 74.04224 | 19369 ft | 386 kts | 253° |
| 2026-04-25 15:19 | 19.45989 | 74.01499 | 18831 ft | 385 kts | 253° |
| 2026-04-25 15:20 | 19.45242 | 73.98774 | 18309 ft | 384 kts | 252° |
| 2026-04-25 15:20 | 19.44499 | 73.96059 | 17741 ft | 383 kts | 252° |
| 2026-04-25 15:20 | 19.43760 | 73.93358 | 17201 ft | 381 kts | 253° |
| 2026-04-25 15:20 | 19.43028 | 73.90697 | 16662 ft | 379 kts | 253° |
| 2026-04-25 15:21 | 19.42258 | 73.88009 | 16121 ft | 377 kts | 249° |
| 2026-04-25 15:21 | 19.41242 | 73.85457 | 15550 ft | 376 kts | 241° |
| 2026-04-25 15:21 | 19.40006 | 73.83061 | 15169 ft | 382 kts | 239° |
| 2026-04-25 15:21 | 19.38703 | 73.80587 | 14793 ft | 383 kts | 239° |
| 2026-04-25 15:22 | 19.37437 | 73.78167 | 14652 ft | 369 kts | 240° |
| 2026-04-25 15:22 | 19.36224 | 73.75827 | 14527 ft | 356 kts | 240° |
| 2026-04-25 15:22 | 19.35058 | 73.73572 | 14411 ft | 343 kts | 240° |
| 2026-04-25 15:22 | 19.33997 | 73.71511 | 14214 ft | 334 kts | 240° |
| 2026-04-25 15:23 | 19.32891 | 73.69363 | 13857 ft | 331 kts | 240° |
| 2026-04-25 15:23 | 19.31804 | 73.67251 | 13439 ft | 330 kts | 240° |
| 2026-04-25 15:23 | 19.30712 | 73.65130 | 12997 ft | 328 kts | 240° |
| 2026-04-25 15:23 | 19.29617 | 73.63006 | 12561 ft | 327 kts | 240° |
| 2026-04-25 15:24 | 19.28530 | 73.60896 | 12150 ft | 325 kts | 240° |
| 2026-04-25 15:24 | 19.27451 | 73.58805 | 11737 ft | 324 kts | 240° |
| 2026-04-25 15:24 | 19.26375 | 73.56718 | 11352 ft | 321 kts | 240° |
| 2026-04-25 15:24 | 19.25667 | 73.55345 | 11095 ft | 320 kts | 240° |
| 2026-04-25 15:25 | 19.24248 | 73.52595 | 10582 ft | 318 kts | 240° |
| 2026-04-25 15:25 | 19.23191 | 73.50551 | 10179 ft | 316 kts | 240° |
| 2026-04-25 15:25 | 19.22150 | 73.48536 | 9781 ft | 315 kts | 240° |
| 2026-04-25 15:25 | 19.21109 | 73.46502 | 9408 ft | 312 kts | 243° |
| 2026-04-25 15:26 | 19.20406 | 73.44334 | 9008 ft | 311 kts | 256° |
| 2026-04-25 15:26 | 19.19974 | 73.42109 | 8641 ft | 308 kts | 259° |
| 2026-04-25 15:26 | 19.19580 | 73.39882 | 8213 ft | 308 kts | 259° |
| 2026-04-25 15:26 | 19.19173 | 73.37797 | 7918 ft | 303 kts | 257° |
| 2026-04-25 15:27 | 19.18693 | 73.35579 | 7424 ft | 305 kts | 257° |
| 2026-04-25 15:27 | 19.18186 | 73.33416 | 7130 ft | 299 kts | 256° |
| 2026-04-25 15:27 | 19.17160 | 73.29236 | 6447 ft | 293 kts | 254° |
| 2026-04-25 15:28 | 19.16658 | 73.27192 | 5959 ft | 296 kts | 254° |
| 2026-04-25 15:28 | 19.16124 | 73.25041 | 5557 ft | 295 kts | 254° |
| 2026-04-25 15:28 | 19.15606 | 73.22962 | 5221 ft | 291 kts | 254° |
| 2026-04-25 15:28 | 19.15088 | 73.20892 | 4841 ft | 290 kts | 255° |
| 2026-04-25 15:29 | 19.14575 | 73.18841 | 4513 ft | 287 kts | 255° |
| 2026-04-25 15:29 | 19.14066 | 73.16805 | 4125 ft | 286 kts | 255° |
| 2026-04-25 15:29 | 19.13561 | 73.14780 | 3774 ft | 283 kts | 255° |
| 2026-04-25 15:29 | 19.13068 | 73.12799 | 3403 ft | 282 kts | 256° |
| 2026-04-25 15:30 | 19.12564 | 73.10795 | 2983 ft | 283 kts | 256° |
| 2026-04-25 15:30 | 19.12067 | 73.08803 | 2756 ft | 276 kts | 257° |
| 2026-04-25 15:30 | 19.11582 | 73.06865 | 2685 ft | 272 kts | 256° |
| 2026-04-25 15:30 | 19.11101 | 73.04932 | 2682 ft | 275 kts | 256° |
| 2026-04-25 15:31 | 19.10620 | 73.02983 | 2675 ft | 274 kts | 257° |
| 2026-04-25 15:31 | 19.10143 | 73.01050 | 2670 ft | 266 kts | 256° |
| 2026-04-25 15:31 | 19.09688 | 72.99209 | 2669 ft | 250 kts | 256° |
| 2026-04-25 15:31 | 19.09265 | 72.97483 | 2661 ft | 236 kts | 257° |
| 2026-04-25 15:32 | 19.08963 | 72.95822 | 2552 ft | 223 kts | 268° |
| 2026-04-25 15:32 | 19.08912 | 72.94252 | 2435 ft | 211 kts | 272° |
| 2026-04-25 15:32 | 19.08885 | 72.92721 | 2198 ft | 208 kts | 273° |
| 2026-04-25 15:33 | 19.08844 | 72.89736 | 1565 ft | 195 kts | 275° |
| 2026-04-25 15:33 | 19.08822 | 72.88354 | 1268 ft | 184 kts | 275° |
| 2026-04-25 15:33 | 19.08813 | 72.87035 | 1061 ft | 173 kts | 275° |
| 2026-04-25 15:33 | 19.08802 | 72.85826 | 1013 ft | 156 kts | 275° |
| 2026-04-25 15:34 | 19.08789 | 72.84759 | 1012 ft | 135 kts | 276° |
| 2026-04-25 15:34 | 19.08851 | 72.83771 | 917 ft | 136 kts | 290° |
| 2026-04-25 15:34 | 19.09300 | 72.82980 | 906 ft | 124 kts | 321° |
| 2026-04-25 15:34 | 19.09734 | 72.82580 | 920 ft | 127 kts | 322° |
| 2026-04-25 15:35 | 19.11544 | 72.82310 | 1679 ft | 137 kts | 46° |
| 2026-04-25 15:35 | 19.11982 | 72.83197 | 2273 ft | 136 kts | 65° |
| 2026-04-25 15:35 | 19.12211 | 72.84193 | 2653 ft | 142 kts | 72° |
| 2026-04-25 15:36 | 19.12377 | 72.86308 | 2779 ft | 145 kts | 84° |
| 2026-04-25 15:36 | 19.12402 | 72.87357 | 2763 ft | 144 kts | 84° |
| 2026-04-25 15:36 | 19.12430 | 72.88434 | 2775 ft | 145 kts | 84° |
| 2026-04-25 15:37 | 19.12467 | 72.89480 | 2774 ft | 145 kts | 84° |
| 2026-04-25 15:37 | 19.12502 | 72.90547 | 2774 ft | 145 kts | 84° |
| 2026-04-25 15:37 | 19.12524 | 72.91612 | 2774 ft | 144 kts | 84° |
| 2026-04-25 15:37 | 19.12546 | 72.92672 | 2771 ft | 144 kts | 84° |
| 2026-04-25 15:38 | 19.12581 | 72.93733 | 2774 ft | 145 kts | 84° |
| 2026-04-25 15:38 | 19.12612 | 72.94783 | 2701 ft | 142 kts | 84° |
| 2026-04-25 15:38 | 19.12641 | 72.95822 | 2492 ft | 142 kts | 86° |
| 2026-04-25 15:38 | 19.12234 | 72.96787 | 2253 ft | 154 kts | 140° |
| 2026-04-25 15:39 | 19.11239 | 72.97163 | 2270 ft | 162 kts | 181° |
| 2026-04-25 15:39 | 19.10167 | 72.96924 | 2265 ft | 156 kts | 209° |
| 2026-04-25 15:39 | 19.09354 | 72.96249 | 2201 ft | 145 kts | 242° |
| 2026-04-25 15:39 | 19.08924 | 72.95314 | 1974 ft | 142 kts | 252° |
| 2026-04-25 15:40 | 19.08613 | 72.94326 | 1662 ft | 141 kts | 271° |
| 2026-04-25 15:40 | 19.08553 | 72.93644 | 1466 ft | 142 kts | 274° |
| 2026-04-25 15:40 | 19.08475 | 72.92240 | 1044 ft | 143 kts | 274° |
| 2026-04-25 15:40 | 19.08431 | 72.91197 | 775 ft | 140 kts | 275° |
| 2026-04-25 15:41 | 19.08548 | 72.90217 | 451 ft | 132 kts | 283° |
| 2026-04-25 15:41 | 19.08768 | 72.89330 | 363 ft | 128 kts | 288° |
| 2026-04-25 15:41 | 19.08867 | 72.88380 | 225 ft | 131 kts | 276° |
| 2026-04-25 15:41 | 19.08880 | 72.87418 | 49 ft | 129 kts | 273° |
| 2026-04-25 15:42 | 19.08889 | 72.86569 | 29 ft | 95 kts | 270° |
| 2026-04-25 15:42 | 19.08865 | 72.86065 | 28 ft | 40 kts | 279° |
| 2026-04-25 15:42 | 19.08944 | 72.85840 | 31 ft | 9 kts | 306° |
| 2026-04-25 15:42 | 19.08971 | 72.85800 | 31 ft | 0 kts | 306° |
| 2026-04-25 15:43 | 19.08971 | 72.85799 | 31 ft | 0 kts | 306° |
| 2026-04-25 15:43 | 19.08978 | 72.85789 | 31 ft | 3 kts | 306° |
| 2026-04-25 15:43 | 19.08992 | 72.85769 | 32 ft | 5 kts | 304° |
| 2026-04-25 15:43 | 19.09014 | 72.85731 | 32 ft | 7 kts | 295° |
| 2026-04-25 15:44 | 19.09029 | 72.85674 | 32 ft | 9 kts | 279° |
| 2026-04-25 15:44 | 19.09037 | 72.85608 | 32 ft | 4 kts | 315° |
| 2026-04-25 15:44 | 19.09069 | 72.85600 | 32 ft | 6 kts | 340° |
| 2026-04-25 15:44 | 19.09096 | 72.85563 | 32 ft | 7 kts | 291° |
| 2026-04-25 15:45 | 19.09099 | 72.85508 | 33 ft | 9 kts | 268° |
| 2026-04-25 15:45 | 19.09098 | 72.85455 | 33 ft | 1 kts | 269° |
| 2026-04-25 15:45 | 19.09098 | 72.85439 | 33 ft | 4 kts | 269° |
| 2026-04-25 15:45 | 19.09100 | 72.85416 | 31 ft | 5 kts | 288° |
| 2026-04-25 15:46 | 19.09144 | 72.85407 | 33 ft | 6 kts | 357° |
| 2026-04-25 15:46 | 19.09156 | 72.85406 | 33 ft | 2 kts | 354° |
| 2026-04-25 15:46 | 19.09163 | 72.85406 | 33 ft | 0 kts | 354° |
| 2026-04-25 15:53 | 19.08440 | 72.91533 | 878 ft | 142 kts | 274° |
| 2026-04-25 15:54 | 19.08437 | 72.90966 | 726 ft | 139 kts | 277° |
| 2026-04-25 15:54 | 19.08518 | 72.90364 | 516 ft | 133 kts | 283° |
| 2026-04-25 15:54 | 19.08568 | 72.90122 | 428 ft | 130 kts | 284° |